createdAt,value
2018-05-24T00:00:09.603Z,99.90
2018-05-24T00:02:37.087Z,99.90
2018-05-24T00:05:04.629Z,99.90
2018-05-24T00:07:32.114Z,99.90
2018-05-24T00:09:59.639Z,99.90
2018-05-24T00:12:27.121Z,99.90
2018-05-24T00:14:54.619Z,99.90
2018-05-24T00:17:22.131Z,99.90
2018-05-24T00:19:49.639Z,99.90
2018-05-24T00:22:17.149Z,99.90
2018-05-24T00:24:44.628Z,99.90
2018-05-24T00:27:12.131Z,99.90
2018-05-24T00:29:40.389Z,99.90
2018-05-24T00:32:07.907Z,99.90
2018-05-24T00:34:35.387Z,99.90
2018-05-24T00:37:02.895Z,99.90
2018-05-24T00:39:30.408Z,99.90
2018-05-24T00:41:57.918Z,99.90
2018-05-24T00:44:25.413Z,99.90
2018-05-24T00:46:54.392Z,99.90
2018-05-24T00:49:21.987Z,99.90
2018-05-24T00:51:49.470Z,99.90
2018-05-24T00:54:16.984Z,99.90
2018-05-24T00:56:44.460Z,99.90
2018-05-24T00:59:11.976Z,99.90
2018-05-24T01:01:39.460Z,99.90
2018-05-24T01:04:06.968Z,99.90
2018-05-24T01:06:34.499Z,99.90
2018-05-24T01:09:01.980Z,99.90
2018-05-24T01:11:30.285Z,99.90
2018-05-24T01:13:57.725Z,99.90
2018-05-24T01:16:25.969Z,99.90
2018-05-24T01:18:53.479Z,99.90
2018-05-24T01:21:20.962Z,99.90
2018-05-24T01:23:48.480Z,99.90
2018-05-24T01:26:16.736Z,99.90
2018-05-24T01:28:44.215Z,99.90
2018-05-24T01:31:12.492Z,99.90
2018-05-24T01:33:40.738Z,99.90
2018-05-24T01:36:08.251Z,99.90
2018-05-24T01:38:35.748Z,99.90
2018-05-24T01:41:03.247Z,99.90
2018-05-24T01:43:31.503Z,99.90
2018-05-24T01:45:59.023Z,99.90
2018-05-24T01:48:26.506Z,99.90
2018-05-24T01:50:54.001Z,99.90
2018-05-24T01:53:22.247Z,99.90
2018-05-24T01:55:49.751Z,99.90
2018-05-24T01:58:17.247Z,99.90
2018-05-24T02:00:44.752Z,99.90
2018-05-24T02:03:13.002Z,99.90
2018-05-24T02:05:40.516Z,99.90
2018-05-24T02:08:08.007Z,99.90
2018-05-24T02:10:35.517Z,99.90
2018-05-24T02:13:03.004Z,99.90
2018-05-24T02:15:30.530Z,99.90
2018-05-24T02:17:58.800Z,99.90
2018-05-24T02:20:27.083Z,99.90
2018-05-24T02:22:55.340Z,99.90
2018-05-24T02:25:22.823Z,99.90
2018-05-24T02:27:50.341Z,99.90
2018-05-24T02:30:17.830Z,99.90
2018-05-24T02:32:46.114Z,99.90
2018-05-24T02:35:13.605Z,99.90
2018-05-24T02:37:41.119Z,99.90
2018-05-24T02:40:09.372Z,99.90
2018-05-24T02:42:36.879Z,99.90
2018-05-24T02:45:04.383Z,99.90
2018-05-24T02:47:31.882Z,99.90
2018-05-24T02:50:00.136Z,99.90
2018-05-24T02:52:27.651Z,99.90
2018-05-24T02:54:55.139Z,99.90
2018-05-24T02:57:22.656Z,99.90
2018-05-24T02:59:50.145Z,99.90
2018-05-24T03:02:17.672Z,99.90
2018-05-24T03:04:45.167Z,99.90
2018-05-24T03:07:12.666Z,99.90
2018-05-24T03:09:40.954Z,99.90
2018-05-24T03:12:08.456Z,99.90
2018-05-24T03:14:35.975Z,99.90
2018-05-24T03:17:04.230Z,99.90
2018-05-24T03:19:31.752Z,99.90
2018-05-24T03:21:59.238Z,99.90
2018-05-24T03:24:26.751Z,99.90
2018-05-24T03:26:54.242Z,99.90
2018-05-24T03:29:21.749Z,99.90
2018-05-24T03:31:49.241Z,99.90
2018-05-24T03:34:16.767Z,99.90
2018-05-24T03:36:44.258Z,99.90
2018-05-24T03:39:11.763Z,99.90
2018-05-24T03:41:40.012Z,99.90
2018-05-24T03:44:07.544Z,99.90
2018-05-24T03:46:35.036Z,99.90
2018-05-24T03:49:02.523Z,99.90
2018-05-24T03:51:30.811Z,99.90
2018-05-24T03:53:59.068Z,99.90
2018-05-24T03:56:27.343Z,99.90
2018-05-24T03:59:04.744Z,99.90
2018-05-24T04:01:44.883Z,99.90
2018-05-24T04:04:24.231Z,99.90
2018-05-24T04:06:52.519Z,99.90
2018-05-24T04:09:21.678Z,99.90
2018-05-24T04:11:49.204Z,99.90
2018-05-24T04:14:16.692Z,99.90
2018-05-24T04:16:44.213Z,99.90
2018-05-24T04:19:11.696Z,99.90
2018-05-24T04:21:39.212Z,99.90
2018-05-24T04:24:07.483Z,99.90
2018-05-24T04:26:35.749Z,99.90
2018-05-24T04:29:03.268Z,99.90
2018-05-24T04:31:30.760Z,99.90
2018-05-24T04:33:58.264Z,99.90
2018-05-24T04:36:25.755Z,99.90
2018-05-24T04:38:53.265Z,99.90
2018-05-24T04:41:21.525Z,99.90
2018-05-24T04:43:49.036Z,99.90
2018-05-24T04:46:16.530Z,99.90
2018-05-24T04:48:44.055Z,99.90
2018-05-24T04:51:11.557Z,99.90
2018-05-24T04:53:39.072Z,99.90
2018-05-24T04:56:06.547Z,99.90
2018-05-24T04:58:34.063Z,99.90
2018-05-24T05:01:01.582Z,99.90
2018-05-24T05:03:29.066Z,99.90
2018-05-24T05:05:57.340Z,99.90
2018-05-24T05:08:24.820Z,99.90
2018-05-24T05:10:52.330Z,99.90
2018-05-24T05:13:19.873Z,99.90
2018-05-24T05:15:47.340Z,99.90
2018-05-24T05:18:14.830Z,99.90
2018-05-24T05:20:42.346Z,99.90
2018-05-24T05:23:09.914Z,99.90
2018-05-24T05:25:37.344Z,99.90
2018-05-24T05:28:04.830Z,99.90
2018-05-24T05:30:32.494Z,99.90
2018-05-24T05:33:00.092Z,99.90
2018-05-24T05:35:27.697Z,99.90
2018-05-24T05:37:55.318Z,99.90
2018-05-24T05:40:22.804Z,99.90
2018-05-24T05:42:50.335Z,99.90
2018-05-24T05:45:17.838Z,99.90
2018-05-24T05:47:45.426Z,99.90
2018-05-24T05:50:12.990Z,99.90
2018-05-24T05:52:40.505Z,99.90
2018-05-24T05:55:07.992Z,99.90
2018-05-24T05:57:35.510Z,99.90
2018-05-24T06:00:03.767Z,99.90
2018-05-24T06:02:31.281Z,99.90
2018-05-24T06:04:58.771Z,99.90
2018-05-24T06:07:26.259Z,99.90
2018-05-24T06:09:54.535Z,99.90
2018-05-24T06:12:22.018Z,99.90
2018-05-24T06:14:49.535Z,99.90
2018-05-24T06:17:17.776Z,99.90
2018-05-24T06:19:45.288Z,99.90
2018-05-24T06:22:13.543Z,99.90
2018-05-24T06:24:41.043Z,99.90
2018-05-24T06:27:08.531Z,99.90
2018-05-24T06:29:36.041Z,99.90
2018-05-24T06:32:04.300Z,99.90
2018-05-24T06:34:31.817Z,99.90
2018-05-24T06:36:59.320Z,99.90
2018-05-24T06:39:27.590Z,99.90
2018-05-24T06:41:55.074Z,99.90
2018-05-24T06:44:23.382Z,99.90
2018-05-24T06:46:50.867Z,99.90
2018-05-24T06:49:18.377Z,99.90
2018-05-24T06:51:45.864Z,99.90
2018-05-24T06:54:13.387Z,99.90
2018-05-24T06:56:41.668Z,99.90
2018-05-24T06:59:09.937Z,99.90
2018-05-24T07:01:38.221Z,99.90
2018-05-24T07:04:06.476Z,99.90
2018-05-24T07:06:33.985Z,99.90
2018-05-24T07:09:01.493Z,99.90
2018-05-24T07:11:28.995Z,99.90
2018-05-24T07:13:56.475Z,99.90
2018-05-24T07:16:23.988Z,99.90
2018-05-24T07:18:52.244Z,99.90
2018-05-24T07:21:19.723Z,99.90
2018-05-24T07:23:47.996Z,99.90
2018-05-24T07:26:16.279Z,99.90
2018-05-24T07:28:44.527Z,99.90
2018-05-24T07:31:12.025Z,99.90
2018-05-24T07:33:39.535Z,99.90
2018-05-24T07:36:07.027Z,99.90
2018-05-24T07:38:35.296Z,99.90
2018-05-24T07:41:02.771Z,99.90
2018-05-24T07:43:31.036Z,99.90
2018-05-24T07:45:59.294Z,99.90
2018-05-24T07:48:26.795Z,99.90
2018-05-24T07:50:54.281Z,99.90
2018-05-24T07:53:21.800Z,99.90
2018-05-24T07:55:50.053Z,99.90
2018-05-24T07:58:17.536Z,99.90
2018-05-24T08:00:45.807Z,99.90
2018-05-24T08:03:14.061Z,99.90
2018-05-24T08:05:42.354Z,99.90
2018-05-24T08:08:10.600Z,99.90
2018-05-24T08:10:38.103Z,99.90
2018-05-24T08:13:06.376Z,99.90
2018-05-24T08:15:34.651Z,99.90
2018-05-24T08:18:02.908Z,99.90
2018-05-24T08:20:31.938Z,99.90
2018-05-24T08:23:00.195Z,99.90
2018-05-24T08:25:27.715Z,99.90
2018-05-24T08:27:55.218Z,99.90
2018-05-24T08:30:23.492Z,99.90
2018-05-24T08:32:51.741Z,99.90
2018-05-24T08:35:19.260Z,99.90
2018-05-24T08:37:46.775Z,99.90
2018-05-24T08:40:14.264Z,99.90
2018-05-24T08:42:41.768Z,99.90
2018-05-24T08:45:09.248Z,99.90
2018-05-24T08:47:36.780Z,99.90
2018-05-24T08:50:04.307Z,99.90
2018-05-24T08:52:31.781Z,99.90
2018-05-24T08:54:59.297Z,99.90
2018-05-24T08:57:26.776Z,99.90
2018-05-24T08:59:55.037Z,99.90
2018-05-24T09:02:23.283Z,99.90
2018-05-24T09:04:50.802Z,99.90
2018-05-24T09:07:18.283Z,99.90
2018-05-24T09:09:45.784Z,99.90
2018-05-24T09:12:13.272Z,99.90
2018-05-24T09:14:40.779Z,99.90
2018-05-24T09:17:08.296Z,99.90
2018-05-24T09:19:35.807Z,99.90
2018-05-24T09:22:04.797Z,99.90
2018-05-24T09:24:32.306Z,99.90
2018-05-24T09:26:59.786Z,99.90
2018-05-24T09:29:27.368Z,99.90
2018-05-24T09:31:54.836Z,99.90
2018-05-24T09:34:22.352Z,99.90
2018-05-24T09:36:49.849Z,99.90
2018-05-24T09:39:17.360Z,99.90
2018-05-24T09:41:44.864Z,99.90
2018-05-24T09:44:12.348Z,99.90
2018-05-24T09:46:40.622Z,99.90
2018-05-24T09:49:08.134Z,99.90
2018-05-24T09:51:35.667Z,89.90
2018-05-24T09:54:03.147Z,86.90
2018-05-24T09:56:30.637Z,93.60
2018-05-24T09:58:58.125Z,94.20
2018-05-24T10:01:26.474Z,93.70
2018-05-24T10:03:53.996Z,93.70
2018-05-24T10:06:21.502Z,94.80
2018-05-24T10:08:48.970Z,94.90
2018-05-24T10:11:16.584Z,97.40
2018-05-24T10:13:44.082Z,96.50
2018-05-24T10:16:11.694Z,98.20
2018-05-24T10:18:39.155Z,99.90
2018-05-24T10:21:06.646Z,99.90
2018-05-24T10:23:34.235Z,99.90
2018-05-24T10:26:02.408Z,99.90
2018-05-24T10:28:29.957Z,99.90
2018-05-24T10:30:58.253Z,99.90
2018-05-24T10:33:26.525Z,99.90
2018-05-24T10:35:54.832Z,99.90
2018-05-24T10:38:22.355Z,99.90
2018-05-24T10:40:49.863Z,99.90
2018-05-24T10:43:17.464Z,99.90
2018-05-24T10:45:45.671Z,99.90
2018-05-24T10:48:13.976Z,99.90
2018-05-24T10:50:41.455Z,99.90
2018-05-24T10:53:08.967Z,99.90
2018-05-24T10:55:37.246Z,99.90
2018-05-24T10:58:05.485Z,99.90
2018-05-24T11:00:32.991Z,99.90
2018-05-24T11:03:00.505Z,99.90
2018-05-24T11:05:27.994Z,99.90
2018-05-24T11:07:56.255Z,99.90
2018-05-24T11:10:23.726Z,99.90
2018-05-24T11:12:51.992Z,99.90
2018-05-24T11:15:19.501Z,99.90
2018-05-24T11:17:47.008Z,99.90
2018-05-24T11:20:14.496Z,99.90
2018-05-24T11:22:41.995Z,99.90
2018-05-24T11:25:09.527Z,99.90
2018-05-24T11:27:37.770Z,99.90
2018-05-24T11:30:06.024Z,99.90
2018-05-24T11:32:33.525Z,99.90
2018-05-24T11:35:01.032Z,99.90
2018-05-24T11:37:28.535Z,99.90
2018-05-24T11:39:56.029Z,99.90
2018-05-24T11:42:23.496Z,99.90
2018-05-24T11:44:50.992Z,99.90
2018-05-24T11:47:18.470Z,99.90
2018-05-24T11:49:45.981Z,99.90
2018-05-24T11:52:13.482Z,99.90
2018-05-24T11:54:41.747Z,99.90
2018-05-24T11:57:09.217Z,99.90
2018-05-24T11:59:37.474Z,99.90
2018-05-24T12:02:04.943Z,99.90
2018-05-24T12:04:33.207Z,99.90
2018-05-24T12:07:00.735Z,99.90
2018-05-24T12:09:28.212Z,99.90
2018-05-24T12:11:55.691Z,99.90
2018-05-24T12:14:23.164Z,99.90
2018-05-24T12:16:51.477Z,99.90
2018-05-24T12:19:18.980Z,99.90
2018-05-24T12:21:46.488Z,99.90
2018-05-24T12:24:13.995Z,99.90
2018-05-24T12:26:41.489Z,99.90
2018-05-24T12:29:09.008Z,99.90
2018-05-24T12:31:36.476Z,99.90
2018-05-24T12:34:03.983Z,99.90
2018-05-24T12:36:31.499Z,99.90
2018-05-24T12:38:58.985Z,99.90
2018-05-24T12:41:26.481Z,99.90
2018-05-24T12:43:53.981Z,99.90
2018-05-24T12:46:22.236Z,99.90
2018-05-24T12:48:49.744Z,99.90
2018-05-24T12:51:17.222Z,99.90
2018-05-24T12:53:44.724Z,99.90
2018-05-24T12:56:12.245Z,99.90
2018-05-24T12:58:39.748Z,99.90
2018-05-24T13:01:07.217Z,99.90
2018-05-24T13:03:35.486Z,99.90
2018-05-24T13:06:02.955Z,99.90
2018-05-24T13:08:31.243Z,99.90
2018-05-24T13:10:59.493Z,99.90
2018-05-24T13:13:26.987Z,99.90
2018-05-24T13:15:54.492Z,99.90
2018-05-24T13:18:22.820Z,99.90
2018-05-24T13:20:50.322Z,99.90
2018-05-24T13:23:17.844Z,99.90
2018-05-24T13:25:45.357Z,99.90
2018-05-24T13:28:12.848Z,99.90
2018-05-24T13:30:41.095Z,99.90
2018-05-24T13:33:08.608Z,99.90
2018-05-24T13:35:36.131Z,99.90
2018-05-24T13:38:04.370Z,99.90
2018-05-24T13:40:31.872Z,99.90
2018-05-24T13:43:00.108Z,99.90
2018-05-24T13:45:27.614Z,99.90
2018-05-24T13:47:55.852Z,99.90
2018-05-24T13:50:23.346Z,99.90
2018-05-24T13:52:50.828Z,99.90
2018-05-24T13:55:18.330Z,99.90
2018-05-24T13:57:45.810Z,99.90
2018-05-24T14:00:14.068Z,99.90
2018-05-24T14:02:41.543Z,99.90
2018-05-24T14:05:09.852Z,99.90
2018-05-24T14:07:37.327Z,99.90
2018-05-24T14:10:04.829Z,99.90
2018-05-24T14:12:32.335Z,99.90
2018-05-24T14:14:59.840Z,99.90
2018-05-24T14:17:27.377Z,99.90
2018-05-24T14:19:54.842Z,99.90
2018-05-24T14:22:22.342Z,99.90
2018-05-24T14:24:50.595Z,99.90
2018-05-24T14:27:18.118Z,99.90
2018-05-24T14:29:45.591Z,99.90
2018-05-24T14:32:13.088Z,99.90
2018-05-24T14:34:41.330Z,99.90
2018-05-24T14:37:08.838Z,99.90
2018-05-24T14:39:36.335Z,99.90
2018-05-24T14:42:03.878Z,99.90
2018-05-24T14:44:31.365Z,99.90
2018-05-24T14:46:58.930Z,99.90
2018-05-24T14:49:26.448Z,99.90
2018-05-24T14:51:53.916Z,99.90
2018-05-24T14:54:21.418Z,99.90
2018-05-24T14:56:48.918Z,99.90
2018-05-24T14:59:16.427Z,99.90
2018-05-24T15:01:43.915Z,99.90
2018-05-24T15:04:12.190Z,99.90
2018-05-24T15:06:40.461Z,99.90
2018-05-24T15:09:07.972Z,99.90
2018-05-24T15:11:35.466Z,99.90
2018-05-24T15:14:02.968Z,99.90
2018-05-24T15:16:30.448Z,99.90
2018-05-24T15:18:58.017Z,99.90
2018-05-24T15:21:25.520Z,99.90
2018-05-24T15:23:53.023Z,99.90
2018-05-24T15:26:20.519Z,99.90
2018-05-24T15:28:48.039Z,99.90
2018-05-24T15:31:15.529Z,99.90
2018-05-24T15:33:43.014Z,99.90
2018-05-24T15:36:11.279Z,99.90
2018-05-24T15:38:38.760Z,99.90
2018-05-24T15:41:07.034Z,99.90
2018-05-24T15:43:35.328Z,99.90
2018-05-24T15:46:03.571Z,99.90
2018-05-24T15:48:31.048Z,99.90
2018-05-24T15:50:59.323Z,99.90
2018-05-24T15:53:27.582Z,99.90
2018-05-24T15:55:55.088Z,99.90
2018-05-24T15:58:22.571Z,99.90
2018-05-24T16:00:50.070Z,99.90
2018-05-24T16:03:18.311Z,99.90
2018-05-24T16:05:45.780Z,99.90
2018-05-24T16:08:13.284Z,99.90
2018-05-24T16:10:40.763Z,99.90
2018-05-24T16:13:08.267Z,99.90
2018-05-24T16:15:35.738Z,99.90
2018-05-24T16:18:04.010Z,99.90
2018-05-24T16:20:31.499Z,99.90
2018-05-24T16:22:58.984Z,99.90
2018-05-24T16:25:26.458Z,99.90
2018-05-24T16:27:53.959Z,99.90
2018-05-24T16:30:22.201Z,99.90
2018-05-24T16:32:49.709Z,99.90
2018-05-24T16:35:17.183Z,99.90
2018-05-24T16:40:19.424Z,99.90
2018-05-24T16:42:46.904Z,99.90
2018-05-24T16:45:15.191Z,99.90
2018-05-24T16:47:42.662Z,99.90
2018-05-24T16:50:10.175Z,99.90
2018-05-24T16:52:37.667Z,99.90
2018-05-24T16:55:05.950Z,99.90
2018-05-24T16:57:33.424Z,99.90
2018-05-24T17:00:00.947Z,99.90
2018-05-24T17:02:29.224Z,99.90
2018-05-24T17:04:57.482Z,99.90
2018-05-24T17:07:24.974Z,99.90
2018-05-24T17:09:54.103Z,99.90
2018-05-24T17:12:21.623Z,99.90
2018-05-24T17:14:50.477Z,99.90
2018-05-24T17:17:17.959Z,99.90
2018-05-24T17:19:46.225Z,99.90
2018-05-24T17:22:13.736Z,99.90
2018-05-24T17:24:41.210Z,99.90
2018-05-24T17:27:08.738Z,99.90
2018-05-24T17:29:36.218Z,99.90
2018-05-24T17:32:03.823Z,99.90
2018-05-24T17:34:31.312Z,99.90
2018-05-24T17:36:59.064Z,99.90
2018-05-24T17:39:27.351Z,99.90
2018-05-24T17:41:54.864Z,99.90
2018-05-24T17:44:22.372Z,99.90
2018-05-24T17:46:49.877Z,99.90
2018-05-24T17:49:17.399Z,99.90
2018-05-24T17:51:44.923Z,99.90
2018-05-24T17:54:12.428Z,99.90
2018-05-24T17:56:39.949Z,99.90
2018-05-24T17:59:08.211Z,99.90
2018-05-24T18:01:35.712Z,99.90
2018-05-24T18:04:03.201Z,99.90
2018-05-24T18:06:30.709Z,99.90
2018-05-24T18:08:58.967Z,99.90
2018-05-24T18:11:26.488Z,99.90
2018-05-24T18:13:53.980Z,99.90
2018-05-24T18:16:21.479Z,99.90
2018-05-24T18:18:48.994Z,99.90
2018-05-24T18:21:16.511Z,99.90
2018-05-24T18:23:44.015Z,99.90
2018-05-24T18:26:12.185Z,99.90
2018-05-24T18:28:41.033Z,99.90
2018-05-24T18:31:08.520Z,99.90
2018-05-24T18:33:36.091Z,99.90
2018-05-24T18:36:03.577Z,99.90
2018-05-24T18:38:31.179Z,99.90
2018-05-24T18:40:58.664Z,99.90
2018-05-24T18:43:26.155Z,99.90
2018-05-24T18:45:54.412Z,99.90
2018-05-24T18:48:21.944Z,99.90
2018-05-24T18:50:49.455Z,99.90
2018-05-24T18:53:17.695Z,99.90
2018-05-24T18:55:45.199Z,99.90
2018-05-24T18:58:13.445Z,99.90
2018-05-24T19:00:41.014Z,99.90
2018-05-24T19:03:08.493Z,99.90
2018-05-24T19:05:36.800Z,99.90
2018-05-24T19:08:04.276Z,99.90
2018-05-24T19:10:31.766Z,99.90
2018-05-24T19:12:59.266Z,99.90
2018-05-24T19:15:26.763Z,99.90
2018-05-24T19:17:54.273Z,99.90
2018-05-24T19:20:21.749Z,99.90
2018-05-24T19:22:49.256Z,99.90
2018-05-24T19:25:16.744Z,99.90
2018-05-24T19:27:45.014Z,99.90
2018-05-24T19:30:13.267Z,99.90
2018-05-24T19:32:40.808Z,99.90
2018-05-24T19:35:08.292Z,99.90
2018-05-24T19:37:36.614Z,99.90
2018-05-24T19:40:04.112Z,99.90
2018-05-24T19:42:31.606Z,99.90
2018-05-24T19:44:59.870Z,99.90
2018-05-24T19:47:27.398Z,99.90
2018-05-24T19:49:54.903Z,99.90
2018-05-24T19:52:23.146Z,99.90
2018-05-24T19:54:50.758Z,99.90
2018-05-24T19:57:18.236Z,99.90
2018-05-24T19:59:45.738Z,99.90
2018-05-24T20:02:13.997Z,99.90
2018-05-24T20:04:41.538Z,99.90
2018-05-24T20:07:09.013Z,99.90
2018-05-24T20:09:36.547Z,99.90
2018-05-24T20:12:04.048Z,99.90
2018-05-24T20:14:33.452Z,99.90
2018-05-24T20:17:01.002Z,99.90
2018-05-24T20:19:28.531Z,99.90
2018-05-24T20:21:56.027Z,99.90
2018-05-24T20:24:23.563Z,99.90
2018-05-24T20:26:51.071Z,99.90
2018-05-24T20:29:19.362Z,99.90
2018-05-24T20:31:46.867Z,99.90
2018-05-24T20:34:14.369Z,99.90
2018-05-24T20:36:42.645Z,99.90
2018-05-24T20:39:10.888Z,99.90
2018-05-24T20:41:38.451Z,99.90
2018-05-24T20:44:05.868Z,99.90
2018-05-24T20:46:33.375Z,99.90
2018-05-24T20:49:00.953Z,99.90
2018-05-24T20:51:29.228Z,99.90
2018-05-24T20:53:57.483Z,99.90
2018-05-24T20:56:24.965Z,99.90
2018-05-24T20:58:53.273Z,99.90
2018-05-24T21:01:20.763Z,99.90
2018-05-24T21:03:48.268Z,99.90
2018-05-24T21:06:16.556Z,99.90
2018-05-24T21:08:44.084Z,99.90
2018-05-24T21:11:11.559Z,99.90
2018-05-24T21:13:39.875Z,99.90
2018-05-24T21:16:07.351Z,99.90
2018-05-24T21:18:34.845Z,99.90
2018-05-24T21:21:03.125Z,99.90
2018-05-24T21:23:31.419Z,99.90
2018-05-24T21:25:59.720Z,99.90
2018-05-24T21:28:27.212Z,99.90
2018-05-24T21:30:54.726Z,99.90
2018-05-24T21:33:22.211Z,99.90
2018-05-24T21:35:49.714Z,99.90
2018-05-24T21:38:17.967Z,99.90
2018-05-24T21:40:45.463Z,99.90
2018-05-24T21:43:13.732Z,99.90
2018-05-24T21:45:41.971Z,99.90
2018-05-24T21:48:09.491Z,99.90
2018-05-24T21:50:36.962Z,99.90
2018-05-24T21:53:04.467Z,99.90
2018-05-24T21:55:31.958Z,99.90
2018-05-24T21:57:59.468Z,99.90
2018-05-24T22:00:26.992Z,99.90
2018-05-24T22:02:54.495Z,99.90
2018-05-24T22:05:21.964Z,99.90
2018-05-24T22:07:49.462Z,99.90
2018-05-24T22:10:16.939Z,99.90
2018-05-24T22:12:44.446Z,99.90
2018-05-24T22:15:11.924Z,99.90
2018-05-24T22:17:40.200Z,99.90
2018-05-24T22:20:08.435Z,99.90
2018-05-24T22:22:35.970Z,99.90
2018-05-24T22:25:03.442Z,99.90
2018-05-24T22:27:30.962Z,99.90
2018-05-24T22:29:59.192Z,99.90
2018-05-24T22:32:26.689Z,99.90
2018-05-24T22:34:54.956Z,99.90
2018-05-24T22:37:23.236Z,99.90
2018-05-24T22:39:51.497Z,99.90
2018-05-24T22:42:18.983Z,99.90
2018-05-24T22:44:46.490Z,99.90
2018-05-24T22:47:13.999Z,99.90
2018-05-24T22:49:42.236Z,99.90
2018-05-24T22:52:09.805Z,99.90
2018-05-24T22:54:37.284Z,99.90
2018-05-24T22:57:05.555Z,99.90
2018-05-24T22:59:33.073Z,99.90
2018-05-24T23:02:00.720Z,99.90
2018-05-24T23:04:28.223Z,99.90
2018-05-24T23:06:55.705Z,99.90
2018-05-24T23:09:23.980Z,99.90
2018-05-24T23:11:52.219Z,99.90
2018-05-24T23:14:19.714Z,99.90
2018-05-24T23:16:47.981Z,99.90
2018-05-24T23:19:15.459Z,99.90
2018-05-24T23:21:42.975Z,99.90
2018-05-24T23:24:10.600Z,99.90
2018-05-24T23:26:38.090Z,99.90
2018-05-24T23:29:05.563Z,99.90
2018-05-24T23:31:33.081Z,99.90
2018-05-24T23:34:00.566Z,99.90
2018-05-24T23:36:28.067Z,99.90
2018-05-24T23:38:55.543Z,99.90
2018-05-24T23:41:23.049Z,99.90
2018-05-24T23:43:50.534Z,99.90
2018-05-24T23:46:18.857Z,99.90
2018-05-24T23:48:46.368Z,99.90
2018-05-24T23:51:14.642Z,99.90
2018-05-24T23:53:42.137Z,99.90
2018-05-24T23:56:09.659Z,99.90
2018-05-24T23:58:37.170Z,99.90
